KTEX/TEX METAR and TAF weather

Enter ICAO airport designator
Station Type Date Time Source
KTEX METAR 2018/12/13 22:15 UTC NOAA

KTEX 132215Z AUTO 00000KT 10SM CLR M02/M14 A3033 RMK AO2


Station Type Date Time Source
KTEX Decoded METAR 2018/12/13 22:15 UTC NOAA

Telluride, Telluride Regional Airport, CO, United States (KTEX) 37-57-14N 107-54-31W
Dec 13, 2018 - 05:15 PM EST / 2018.12.13 2215 UTC
Wind: Calm:0
Visibility: 10 mile(s):0
Sky conditions: clear
Temperature: 28 F (-2 C)
Dew Point: 6 F (-14 C)
Relative Humidity: 39%
Pressure (altimeter): 30.33 in. Hg (1027 hPa)
ob: KTEX 132215Z AUTO 00000KT 10SM CLR M02/M14 A3033 RMK AO2
cycle: 22

Station Type Date Time Source
KTEX TAF 2018/12/13 18:28 UTC NOAA

TAF KTEX 131726Z 1318/1418 08005KT P6SM SKC
FM131900 32006KT P6SM SKC
FM140100 09006KT P6SM SKC


Example: see airport list